sensor_id;sensor_type;location;lat;lon;timestamp;temperature;humidity
17178;DHT22;8704;52.006;4.374;2023-05-10T00:00:13;11.30;1.00
17178;DHT22;8704;52.006;4.374;2023-05-10T00:02:43;11.20;1.00
17178;DHT22;8704;52.006;4.374;2023-05-10T00:05:11;11.20;1.00
17178;DHT22;8704;52.006;4.374;2023-05-10T00:07:39;11.20;1.00
17178;DHT22;8704;52.006;4.374;2023-05-10T00:10:07;11.20;1.00
17178;DHT22;8704;52.006;4.374;2023-05-10T00:12:35;11.10;1.00
17178;DHT22;8704;52.006;4.374;2023-05-10T00:15:04;11.10;1.00
17178;DHT22;8704;52.006;4.374;2023-05-10T00:17:32;11.10;1.00
17178;DHT22;8704;52.006;4.374;2023-05-10T00:20:01;11.00;1.00
17178;DHT22;8704;52.006;4.374;2023-05-10T00:22:31;11.00;1.00
17178;DHT22;8704;52.006;4.374;2023-05-10T00:24:59;11.00;1.00
17178;DHT22;8704;52.006;4.374;2023-05-10T00:27:27;11.00;1.00
17178;DHT22;8704;52.006;4.374;2023-05-10T00:29:55;11.00;1.00
17178;DHT22;8704;52.006;4.374;2023-05-10T00:32:23;11.00;1.00
17178;DHT22;8704;52.006;4.374;2023-05-10T00:34:51;10.90;1.00
17178;DHT22;8704;52.006;4.374;2023-05-10T00:37:20;10.90;1.00
17178;DHT22;8704;52.006;4.374;2023-05-10T00:39:48;10.90;1.00
17178;DHT22;8704;52.006;4.374;2023-05-10T00:42:16;10.90;1.00
17178;DHT22;8704;52.006;4.374;2023-05-10T00:44:44;10.90;1.00
17178;DHT22;8704;52.006;4.374;2023-05-10T00:47:13;10.90;1.00
17178;DHT22;8704;52.006;4.374;2023-05-10T00:49:41;10.90;62.30
17178;DHT22;8704;52.006;4.374;2023-05-10T00:52:09;10.90;99.90
17178;DHT22;8704;52.006;4.374;2023-05-10T00:54:39;10.90;99.90
17178;DHT22;8704;52.006;4.374;2023-05-10T00:57:07;10.90;99.90
17178;DHT22;8704;52.006;4.374;2023-05-10T00:59:35;11.00;1.00
17178;DHT22;8704;52.006;4.374;2023-05-10T01:02:03;11.10;1.00
17178;DHT22;8704;52.006;4.374;2023-05-10T01:04:31;11.10;1.00
17178;DHT22;8704;52.006;4.374;2023-05-10T01:06:59;11.20;1.00
17178;DHT22;8704;52.006;4.374;2023-05-10T01:09:27;11.30;99.90
17178;DHT22;8704;52.006;4.374;2023-05-10T01:11:57;11.30;99.90
17178;DHT22;8704;52.006;4.374;2023-05-10T01:14:26;11.30;1.00
17178;DHT22;8704;52.006;4.374;2023-05-10T01:16:55;11.40;1.00
17178;DHT22;8704;52.006;4.374;2023-05-10T01:19:24;11.40;1.00
17178;DHT22;8704;52.006;4.374;2023-05-10T01:22:02;11.40;1.00
17178;DHT22;8704;52.006;4.374;2023-05-10T01:25:08;11.40;1.00
17178;DHT22;8704;52.006;4.374;2023-05-10T01:30:55;11.40;1.00
17178;DHT22;8704;52.006;4.374;2023-05-10T01:33:35;11.50;1.00
17178;DHT22;8704;52.006;4.374;2023-05-10T01:36:08;11.50;1.00
17178;DHT22;8704;52.006;4.374;2023-05-10T01:38:44;11.50;1.00
17178;DHT22;8704;52.006;4.374;2023-05-10T01:41:17;11.60;70.80
17178;DHT22;8704;52.006;4.374;2023-05-10T01:43:53;11.60;94.40
17178;DHT22;8704;52.006;4.374;2023-05-10T01:46:27;11.60;99.90
17178;DHT22;8704;52.006;4.374;2023-05-10T01:48:58;11.60;99.90
17178;DHT22;8704;52.006;4.374;2023-05-10T01:51:33;11.80;99.90
17178;DHT22;8704;52.006;4.374;2023-05-10T01:54:05;11.70;99.90
17178;DHT22;8704;52.006;4.374;2023-05-10T01:56:35;11.80;99.90
17178;DHT22;8704;52.006;4.374;2023-05-10T01:59:06;11.80;99.90
17178;DHT22;8704;52.006;4.374;2023-05-10T02:01:36;11.80;99.90
17178;DHT22;8704;52.006;4.374;2023-05-10T02:04:07;11.70;99.90
17178;DHT22;8704;52.006;4.374;2023-05-10T02:06:38;11.90;99.90
17178;DHT22;8704;52.006;4.374;2023-05-10T02:09:07;11.90;99.90
17178;DHT22;8704;52.006;4.374;2023-05-10T02:11:37;11.90;99.90
17178;DHT22;8704;52.006;4.374;2023-05-10T02:14:07;11.90;99.90
17178;DHT22;8704;52.006;4.374;2023-05-10T02:16:38;11.80;81.30
17178;DHT22;8704;52.006;4.374;2023-05-10T02:19:09;11.90;96.00
17178;DHT22;8704;52.006;4.374;2023-05-10T02:21:39;11.90;84.10
17178;DHT22;8704;52.006;4.374;2023-05-10T02:24:08;11.90;80.40
17178;DHT22;8704;52.006;4.374;2023-05-10T02:26:38;11.90;56.30
17178;DHT22;8704;52.006;4.374;2023-05-10T02:29:06;12.00;32.60
17178;DHT22;8704;52.006;4.374;2023-05-10T02:31:35;11.90;27.60
17178;DHT22;8704;52.006;4.374;2023-05-10T02:34:07;12.10;14.50
17178;DHT22;8704;52.006;4.374;2023-05-10T02:36:36;12.00;13.30
17178;DHT22;8704;52.006;4.374;2023-05-10T02:39:05;12.10;1.80
17178;DHT22;8704;52.006;4.374;2023-05-10T02:41:37;12.10;1.00
17178;DHT22;8704;52.006;4.374;2023-05-10T02:44:06;12.10;1.00
17178;DHT22;8704;52.006;4.374;2023-05-10T02:46:35;12.10;1.00
17178;DHT22;8704;52.006;4.374;2023-05-10T02:49:04;12.10;1.00
17178;DHT22;8704;52.006;4.374;2023-05-10T02:51:37;12.00;1.00
17178;DHT22;8704;52.006;4.374;2023-05-10T02:54:11;12.10;99.90
17178;DHT22;8704;52.006;4.374;2023-05-10T02:56:43;12.10;1.00
17178;DHT22;8704;52.006;4.374;2023-05-10T02:59:14;12.10;99.90
17178;DHT22;8704;52.006;4.374;2023-05-10T03:01:42;12.10;1.00
17178;DHT22;8704;52.006;4.374;2023-05-10T03:04:10;12.10;1.00
17178;DHT22;8704;52.006;4.374;2023-05-10T03:06:40;12.10;1.00
17178;DHT22;8704;52.006;4.374;2023-05-10T03:09:08;12.20;99.90
17178;DHT22;8704;52.006;4.374;2023-05-10T03:11:45;12.10;42.30
17178;DHT22;8704;52.006;4.374;2023-05-10T03:14:26;12.10;1.00
17178;DHT22;8704;52.006;4.374;2023-05-10T03:17:03;12.10;1.00
17178;DHT22;8704;52.006;4.374;2023-05-10T03:19:35;12.10;1.00
17178;DHT22;8704;52.006;4.374;2023-05-10T03:22:10;12.20;99.90
17178;DHT22;8704;52.006;4.374;2023-05-10T03:24:41;12.20;99.90
17178;DHT22;8704;52.006;4.374;2023-05-10T03:27:10;12.20;99.90
17178;DHT22;8704;52.006;4.374;2023-05-10T03:29:39;12.20;99.90
17178;DHT22;8704;52.006;4.374;2023-05-10T03:32:07;12.20;99.90
17178;DHT22;8704;52.006;4.374;2023-05-10T03:34:41;12.20;99.90
17178;DHT22;8704;52.006;4.374;2023-05-10T03:37:10;12.20;33.60
17178;DHT22;8704;52.006;4.374;2023-05-10T03:39:38;12.20;99.90
17178;DHT22;8704;52.006;4.374;2023-05-10T03:42:06;12.10;99.90
17178;DHT22;8704;52.006;4.374;2023-05-10T03:44:34;12.10;99.90
17178;DHT22;8704;52.006;4.374;2023-05-10T03:47:02;12.10;99.90
17178;DHT22;8704;52.006;4.374;2023-05-10T03:49:30;12.10;21.50
17178;DHT22;8704;52.006;4.374;2023-05-10T03:51:58;12.10;35.60
17178;DHT22;8704;52.006;4.374;2023-05-10T03:54:28;12.10;34.80
17178;DHT22;8704;52.006;4.374;2023-05-10T03:56:55;12.10;1.00
17178;DHT22;8704;52.006;4.374;2023-05-10T03:59:23;12.10;1.00
17178;DHT22;8704;52.006;4.374;2023-05-10T04:01:51;12.20;1.00
17178;DHT22;8704;52.006;4.374;2023-05-10T04:04:19;12.10;45.40
17178;DHT22;8704;52.006;4.374;2023-05-10T04:06:48;12.10;37.30
17178;DHT22;8704;52.006;4.374;2023-05-10T04:09:16;12.10;1.00
17178;DHT22;8704;52.006;4.374;2023-05-10T04:11:45;12.00;1.00
17178;DHT22;8704;52.006;4.374;2023-05-10T04:14:13;12.00;1.00
17178;DHT22;8704;52.006;4.374;2023-05-10T04:16:41;12.00;1.00
17178;DHT22;8704;52.006;4.374;2023-05-10T04:19:09;12.00;1.00
17178;DHT22;8704;52.006;4.374;2023-05-10T04:21:37;12.00;1.00
17178;DHT22;8704;52.006;4.374;2023-05-10T04:24:05;12.00;1.00
17178;DHT22;8704;52.006;4.374;2023-05-10T04:26:33;11.90;1.00
17178;DHT22;8704;52.006;4.374;2023-05-10T04:29:03;11.90;1.00
17178;DHT22;8704;52.006;4.374;2023-05-10T04:31:30;11.90;1.00
17178;DHT22;8704;52.006;4.374;2023-05-10T04:33:59;12.00;1.00
17178;DHT22;8704;52.006;4.374;2023-05-10T04:36:26;11.90;99.90
17178;DHT22;8704;52.006;4.374;2023-05-10T04:38:55;11.90;99.90
17178;DHT22;8704;52.006;4.374;2023-05-10T04:41:23;11.90;1.00
17178;DHT22;8704;52.006;4.374;2023-05-10T04:43:51;11.90;99.90
17178;DHT22;8704;52.006;4.374;2023-05-10T04:46:21;11.90;99.90
17178;DHT22;8704;52.006;4.374;2023-05-10T04:48:49;11.80;1.00
17178;DHT22;8704;52.006;4.374;2023-05-10T04:51:17;11.80;1.00
17178;DHT22;8704;52.006;4.374;2023-05-10T04:53:44;11.80;1.00
17178;DHT22;8704;52.006;4.374;2023-05-10T04:56:31;11.90;1.00
17178;DHT22;8704;52.006;4.374;2023-05-10T04:58:59;11.80;1.00
17178;DHT22;8704;52.006;4.374;2023-05-10T05:01:28;11.80;1.00
17178;DHT22;8704;52.006;4.374;2023-05-10T05:03:56;11.80;1.00
17178;DHT22;8704;52.006;4.374;2023-05-10T05:06:24;11.90;99.90
17178;DHT22;8704;52.006;4.374;2023-05-10T05:08:53;11.80;99.90
17178;DHT22;8704;52.006;4.374;2023-05-10T05:11:21;11.90;99.90
17178;DHT22;8704;52.006;4.374;2023-05-10T05:13:49;11.80;99.90
17178;DHT22;8704;52.006;4.374;2023-05-10T05:16:17;11.80;99.90
17178;DHT22;8704;52.006;4.374;2023-05-10T05:18:46;11.80;99.90
17178;DHT22;8704;52.006;4.374;2023-05-10T05:21:14;11.90;99.90
17178;DHT22;8704;52.006;4.374;2023-05-10T05:23:43;11.90;99.90
17178;DHT22;8704;52.006;4.374;2023-05-10T05:26:11;11.90;99.90
17178;DHT22;8704;52.006;4.374;2023-05-10T05:28:39;12.00;53.60
17178;DHT22;8704;52.006;4.374;2023-05-10T05:31:07;11.90;8.60
17178;DHT22;8704;52.006;4.374;2023-05-10T05:33:36;11.90;1.00
17178;DHT22;8704;52.006;4.374;2023-05-10T05:36:06;12.00;1.00
17178;DHT22;8704;52.006;4.374;2023-05-10T05:38:34;11.90;1.00
17178;DHT22;8704;52.006;4.374;2023-05-10T05:41:02;11.90;1.00
17178;DHT22;8704;52.006;4.374;2023-05-10T05:43:29;12.00;1.00
17178;DHT22;8704;52.006;4.374;2023-05-10T05:45:57;12.00;1.00
17178;DHT22;8704;52.006;4.374;2023-05-10T05:48:25;12.00;1.00
17178;DHT22;8704;52.006;4.374;2023-05-10T05:50:54;12.10;1.00
17178;DHT22;8704;52.006;4.374;2023-05-10T05:53:24;12.10;1.00
17178;DHT22;8704;52.006;4.374;2023-05-10T05:55:53;12.20;1.00
17178;DHT22;8704;52.006;4.374;2023-05-10T05:58:21;12.10;1.00
17178;DHT22;8704;52.006;4.374;2023-05-10T06:00:49;12.20;1.00
17178;DHT22;8704;52.006;4.374;2023-05-10T06:03:18;12.30;12.80
17178;DHT22;8704;52.006;4.374;2023-05-10T06:05:47;12.30;44.90
17178;DHT22;8704;52.006;4.374;2023-05-10T06:08:15;12.30;65.40
17178;DHT22;8704;52.006;4.374;2023-05-10T06:10:44;12.40;82.10
17178;DHT22;8704;52.006;4.374;2023-05-10T06:13:12;12.50;98.00
17178;DHT22;8704;52.006;4.374;2023-05-10T06:15:40;12.50;99.60
17178;DHT22;8704;52.006;4.374;2023-05-10T06:18:08;12.60;99.90
17178;DHT22;8704;52.006;4.374;2023-05-10T06:20:36;12.70;98.10
17178;DHT22;8704;52.006;4.374;2023-05-10T06:23:04;12.70;9.00
17178;DHT22;8704;52.006;4.374;2023-05-10T06:25:32;12.70;7.90
17178;DHT22;8704;52.006;4.374;2023-05-10T06:28:01;12.80;1.00
17178;DHT22;8704;52.006;4.374;2023-05-10T06:30:29;12.80;1.00
17178;DHT22;8704;52.006;4.374;2023-05-10T06:32:57;12.90;1.00
17178;DHT22;8704;52.006;4.374;2023-05-10T06:35:25;13.00;1.00
17178;DHT22;8704;52.006;4.374;2023-05-10T06:37:53;13.10;1.00
17178;DHT22;8704;52.006;4.374;2023-05-10T06:40:21;13.20;1.00
17178;DHT22;8704;52.006;4.374;2023-05-10T06:42:49;13.10;99.90
17178;DHT22;8704;52.006;4.374;2023-05-10T06:45:19;13.20;99.90
17178;DHT22;8704;52.006;4.374;2023-05-10T06:47:47;13.30;99.90
17178;DHT22;8704;52.006;4.374;2023-05-10T06:50:15;13.30;99.90
17178;DHT22;8704;52.006;4.374;2023-05-10T06:52:42;13.40;99.90
17178;DHT22;8704;52.006;4.374;2023-05-10T06:55:10;13.50;99.90
17178;DHT22;8704;52.006;4.374;2023-05-10T06:57:39;13.50;1.00
17178;DHT22;8704;52.006;4.374;2023-05-10T07:00:07;13.50;99.90
17178;DHT22;8704;52.006;4.374;2023-05-10T07:02:37;13.60;1.00
17178;DHT22;8704;52.006;4.374;2023-05-10T07:05:05;13.70;99.90
17178;DHT22;8704;52.006;4.374;2023-05-10T07:07:34;13.70;99.90
17178;DHT22;8704;52.006;4.374;2023-05-10T07:10:02;13.60;99.90
17178;DHT22;8704;52.006;4.374;2023-05-10T07:12:30;13.70;99.90
17178;DHT22;8704;52.006;4.374;2023-05-10T07:14:58;13.70;99.90
17178;DHT22;8704;52.006;4.374;2023-05-10T07:17:26;13.80;99.90
17178;DHT22;8704;52.006;4.374;2023-05-10T07:19:55;13.70;99.90
17178;DHT22;8704;52.006;4.374;2023-05-10T07:22:23;13.80;99.90
17178;DHT22;8704;52.006;4.374;2023-05-10T07:24:51;13.70;99.90
17178;DHT22;8704;52.006;4.374;2023-05-10T07:27:19;13.90;99.90
17178;DHT22;8704;52.006;4.374;2023-05-10T07:29:47;13.80;99.90
17178;DHT22;8704;52.006;4.374;2023-05-10T07:32:15;13.90;99.90
17178;DHT22;8704;52.006;4.374;2023-05-10T07:34:43;13.80;1.00
17178;DHT22;8704;52.006;4.374;2023-05-10T07:37:12;13.80;1.00
17178;DHT22;8704;52.006;4.374;2023-05-10T07:39:40;13.80;1.00
17178;DHT22;8704;52.006;4.374;2023-05-10T07:42:08;13.80;1.00
17178;DHT22;8704;52.006;4.374;2023-05-10T07:44:36;13.80;1.00
17178;DHT22;8704;52.006;4.374;2023-05-10T07:47:04;13.70;1.00
17178;DHT22;8704;52.006;4.374;2023-05-10T07:49:32;13.70;1.00
17178;DHT22;8704;52.006;4.374;2023-05-10T07:52:00;13.80;1.00
17178;DHT22;8704;52.006;4.374;2023-05-10T07:54:29;13.90;1.00
17178;DHT22;8704;52.006;4.374;2023-05-10T07:56:57;13.90;1.00
17178;DHT22;8704;52.006;4.374;2023-05-10T07:59:26;14.00;1.00
17178;DHT22;8704;52.006;4.374;2023-05-10T08:01:54;14.00;1.00
17178;DHT22;8704;52.006;4.374;2023-05-10T08:04:22;13.90;1.00
17178;DHT22;8704;52.006;4.374;2023-05-10T08:06:50;13.90;1.00
17178;DHT22;8704;52.006;4.374;2023-05-10T08:09:18;13.90;1.00
17178;DHT22;8704;52.006;4.374;2023-05-10T08:11:51;14.00;1.00
17178;DHT22;8704;52.006;4.374;2023-05-10T08:14:19;14.10;1.00
17178;DHT22;8704;52.006;4.374;2023-05-10T08:16:47;14.20;1.00
17178;DHT22;8704;52.006;4.374;2023-05-10T08:19:15;14.20;1.00
17178;DHT22;8704;52.006;4.374;2023-05-10T08:21:45;14.20;1.00
17178;DHT22;8704;52.006;4.374;2023-05-10T08:24:13;14.30;1.00
17178;DHT22;8704;52.006;4.374;2023-05-10T08:26:41;14.30;1.00
17178;DHT22;8704;52.006;4.374;2023-05-10T08:29:10;14.40;1.00
17178;DHT22;8704;52.006;4.374;2023-05-10T08:31:38;14.60;1.00
17178;DHT22;8704;52.006;4.374;2023-05-10T08:34:07;14.50;1.00
17178;DHT22;8704;52.006;4.374;2023-05-10T08:36:34;14.80;1.00
17178;DHT22;8704;52.006;4.374;2023-05-10T08:39:03;14.70;1.00
17178;DHT22;8704;52.006;4.374;2023-05-10T08:41:39;14.70;1.00
17178;DHT22;8704;52.006;4.374;2023-05-10T08:44:08;14.60;1.00
17178;DHT22;8704;52.006;4.374;2023-05-10T08:46:37;14.60;1.00
17178;DHT22;8704;52.006;4.374;2023-05-10T08:49:13;14.80;1.00
17178;DHT22;8704;52.006;4.374;2023-05-10T08:51:47;14.70;99.90
17178;DHT22;8704;52.006;4.374;2023-05-10T08:54:17;14.70;99.90
17178;DHT22;8704;52.006;4.374;2023-05-10T08:56:46;14.80;99.90
17178;DHT22;8704;52.006;4.374;2023-05-10T08:59:15;14.80;99.90
17178;DHT22;8704;52.006;4.374;2023-05-10T09:01:45;14.70;99.90
17178;DHT22;8704;52.006;4.374;2023-05-10T09:04:15;14.70;99.90
17178;DHT22;8704;52.006;4.374;2023-05-10T09:06:43;14.60;99.90
17178;DHT22;8704;52.006;4.374;2023-05-10T09:09:12;14.60;99.90
17178;DHT22;8704;52.006;4.374;2023-05-10T09:11:40;14.70;99.90
17178;DHT22;8704;52.006;4.374;2023-05-10T09:14:08;14.50;99.90
17178;DHT22;8704;52.006;4.374;2023-05-10T09:16:37;14.60;99.90
17178;DHT22;8704;52.006;4.374;2023-05-10T09:19:07;14.60;99.90
17178;DHT22;8704;52.006;4.374;2023-05-10T09:21:36;14.60;99.90
17178;DHT22;8704;52.006;4.374;2023-05-10T09:24:06;14.60;99.90
17178;DHT22;8704;52.006;4.374;2023-05-10T09:26:35;14.70;99.90
17178;DHT22;8704;52.006;4.374;2023-05-10T09:29:03;14.60;99.90
17178;DHT22;8704;52.006;4.374;2023-05-10T09:31:46;14.60;99.90
17178;DHT22;8704;52.006;4.374;2023-05-10T09:34:20;14.60;99.90
17178;DHT22;8704;52.006;4.374;2023-05-10T09:36:55;14.50;99.90
17178;DHT22;8704;52.006;4.374;2023-05-10T09:39:30;14.40;99.90
17178;DHT22;8704;52.006;4.374;2023-05-10T09:42:00;14.60;99.90
17178;DHT22;8704;52.006;4.374;2023-05-10T09:44:31;14.60;99.90
17178;DHT22;8704;52.006;4.374;2023-05-10T09:46:59;14.70;99.90
17178;DHT22;8704;52.006;4.374;2023-05-10T09:49:28;14.70;99.90
17178;DHT22;8704;52.006;4.374;2023-05-10T09:52:01;14.80;99.90
17178;DHT22;8704;52.006;4.374;2023-05-10T09:54:30;14.80;99.90
17178;DHT22;8704;52.006;4.374;2023-05-10T09:56:58;14.80;99.90
17178;DHT22;8704;52.006;4.374;2023-05-10T09:59:27;14.90;99.90
17178;DHT22;8704;52.006;4.374;2023-05-10T10:01:56;14.80;99.90
17178;DHT22;8704;52.006;4.374;2023-05-10T10:04:25;14.90;99.90
17178;DHT22;8704;52.006;4.374;2023-05-10T10:07:00;14.70;99.90
17178;DHT22;8704;52.006;4.374;2023-05-10T10:09:29;14.80;99.90
17178;DHT22;8704;52.006;4.374;2023-05-10T10:11:57;14.80;99.90
17178;DHT22;8704;52.006;4.374;2023-05-10T10:14:26;14.60;87.60
17178;DHT22;8704;52.006;4.374;2023-05-10T10:16:55;14.50;99.90
17178;DHT22;8704;52.006;4.374;2023-05-10T10:19:34;14.50;99.90
17178;DHT22;8704;52.006;4.374;2023-05-10T10:22:04;14.50;99.90
17178;DHT22;8704;52.006;4.374;2023-05-10T10:24:33;14.40;99.90
17178;DHT22;8704;52.006;4.374;2023-05-10T10:27:09;14.40;99.90
17178;DHT22;8704;52.006;4.374;2023-05-10T10:29:45;14.30;99.90
17178;DHT22;8704;52.006;4.374;2023-05-10T10:32:22;14.30;99.90
17178;DHT22;8704;52.006;4.374;2023-05-10T10:34:54;14.40;99.90
17178;DHT22;8704;52.006;4.374;2023-05-10T10:37:24;14.40;99.90
17178;DHT22;8704;52.006;4.374;2023-05-10T10:40:23;14.30;99.90
17178;DHT22;8704;52.006;4.374;2023-05-10T10:42:52;14.30;99.90
17178;DHT22;8704;52.006;4.374;2023-05-10T10:45:22;14.30;99.90
17178;DHT22;8704;52.006;4.374;2023-05-10T10:48:20;14.30;99.90
17178;DHT22;8704;52.006;4.374;2023-05-10T10:50:56;14.30;99.90
17178;DHT22;8704;52.006;4.374;2023-05-10T10:53:27;14.30;99.90
17178;DHT22;8704;52.006;4.374;2023-05-10T10:56:05;14.30;99.90
17178;DHT22;8704;52.006;4.374;2023-05-10T10:58:34;14.50;99.90
17178;DHT22;8704;52.006;4.374;2023-05-10T11:01:14;14.50;99.90
17178;DHT22;8704;52.006;4.374;2023-05-10T11:06:38;14.50;99.90
17178;DHT22;8704;52.006;4.374;2023-05-10T11:09:09;14.60;99.90
17178;DHT22;8704;52.006;4.374;2023-05-10T11:11:50;14.60;47.70
17178;DHT22;8704;52.006;4.374;2023-05-10T11:14:20;14.70;65.50
17178;DHT22;8704;52.006;4.374;2023-05-10T11:16:49;14.70;35.60
17178;DHT22;8704;52.006;4.374;2023-05-10T11:19:18;14.80;28.20
17178;DHT22;8704;52.006;4.374;2023-05-10T11:21:47;14.90;99.90
17178;DHT22;8704;52.006;4.374;2023-05-10T11:24:18;14.90;85.20
17178;DHT22;8704;52.006;4.374;2023-05-10T11:26:49;14.90;9.60
17178;DHT22;8704;52.006;4.374;2023-05-10T11:29:17;14.90;6.70
17178;DHT22;8704;52.006;4.374;2023-05-10T11:31:46;15.00;5.80
17178;DHT22;8704;52.006;4.374;2023-05-10T11:34:23;15.10;1.00
17178;DHT22;8704;52.006;4.374;2023-05-10T11:36:52;15.10;5.10
17178;DHT22;8704;52.006;4.374;2023-05-10T11:39:26;15.30;1.00
17178;DHT22;8704;52.006;4.374;2023-05-10T11:41:54;15.30;1.00
17178;DHT22;8704;52.006;4.374;2023-05-10T11:44:22;15.20;1.00
17178;DHT22;8704;52.006;4.374;2023-05-10T11:46:52;15.30;1.00
17178;DHT22;8704;52.006;4.374;2023-05-10T11:49:20;15.50;1.00
17178;DHT22;8704;52.006;4.374;2023-05-10T11:51:51;15.50;1.00
17178;DHT22;8704;52.006;4.374;2023-05-10T11:54:19;15.50;1.00
17178;DHT22;8704;52.006;4.374;2023-05-10T11:56:50;15.60;2.50
17178;DHT22;8704;52.006;4.374;2023-05-10T11:59:19;15.50;1.00
17178;DHT22;8704;52.006;4.374;2023-05-10T12:01:47;15.60;1.00
17178;DHT22;8704;52.006;4.374;2023-05-10T12:04:15;15.50;1.00
17178;DHT22;8704;52.006;4.374;2023-05-10T12:06:44;15.50;1.00
17178;DHT22;8704;52.006;4.374;2023-05-10T12:09:13;15.50;1.00
17178;DHT22;8704;52.006;4.374;2023-05-10T12:11:44;15.50;1.00
17178;DHT22;8704;52.006;4.374;2023-05-10T12:14:14;15.40;1.00
17178;DHT22;8704;52.006;4.374;2023-05-10T12:16:43;15.50;1.00
17178;DHT22;8704;52.006;4.374;2023-05-10T12:19:11;15.50;1.00
17178;DHT22;8704;52.006;4.374;2023-05-10T12:21:39;15.60;1.00
17178;DHT22;8704;52.006;4.374;2023-05-10T12:24:08;15.80;1.00
17178;DHT22;8704;52.006;4.374;2023-05-10T12:26:37;15.70;1.00
17178;DHT22;8704;52.006;4.374;2023-05-10T12:29:24;15.60;1.00
17178;DHT22;8704;52.006;4.374;2023-05-10T12:31:53;15.70;1.00
17178;DHT22;8704;52.006;4.374;2023-05-10T12:34:32;15.70;1.00
17178;DHT22;8704;52.006;4.374;2023-05-10T12:37:00;15.80;1.00
17178;DHT22;8704;52.006;4.374;2023-05-10T12:39:39;15.70;1.00
17178;DHT22;8704;52.006;4.374;2023-05-10T12:42:07;15.90;1.00
17178;DHT22;8704;52.006;4.374;2023-05-10T12:44:36;15.90;1.00
17178;DHT22;8704;52.006;4.374;2023-05-10T12:47:04;16.00;1.00
17178;DHT22;8704;52.006;4.374;2023-05-10T12:49:32;15.90;1.00
17178;DHT22;8704;52.006;4.374;2023-05-10T12:52:01;15.90;1.00
17178;DHT22;8704;52.006;4.374;2023-05-10T12:54:28;16.00;1.00
17178;DHT22;8704;52.006;4.374;2023-05-10T12:56:57;16.10;1.00
17178;DHT22;8704;52.006;4.374;2023-05-10T12:59:24;16.00;1.00
17178;DHT22;8704;52.006;4.374;2023-05-10T13:01:54;16.20;1.00
17178;DHT22;8704;52.006;4.374;2023-05-10T13:04:22;16.10;1.00
17178;DHT22;8704;52.006;4.374;2023-05-10T13:06:49;16.10;1.00
17178;DHT22;8704;52.006;4.374;2023-05-10T13:09:18;16.20;1.00
17178;DHT22;8704;52.006;4.374;2023-05-10T13:11:47;16.20;1.00
17178;DHT22;8704;52.006;4.374;2023-05-10T13:14:15;16.30;1.00
17178;DHT22;8704;52.006;4.374;2023-05-10T13:16:42;16.20;1.00
17178;DHT22;8704;52.006;4.374;2023-05-10T13:19:12;16.40;1.00
17178;DHT22;8704;52.006;4.374;2023-05-10T13:21:40;16.40;1.00
17178;DHT22;8704;52.006;4.374;2023-05-10T13:24:08;16.30;1.00
17178;DHT22;8704;52.006;4.374;2023-05-10T13:26:37;16.20;1.00
17178;DHT22;8704;52.006;4.374;2023-05-10T13:29:05;16.10;1.00
17178;DHT22;8704;52.006;4.374;2023-05-10T13:31:33;16.20;1.00
17178;DHT22;8704;52.006;4.374;2023-05-10T13:34:01;16.40;1.00
17178;DHT22;8704;52.006;4.374;2023-05-10T13:36:31;16.40;1.00
17178;DHT22;8704;52.006;4.374;2023-05-10T13:38:58;16.20;1.00
17178;DHT22;8704;52.006;4.374;2023-05-10T13:41:29;16.10;1.00
17178;DHT22;8704;52.006;4.374;2023-05-10T13:43:56;15.90;1.00
17178;DHT22;8704;52.006;4.374;2023-05-10T13:46:24;15.90;1.00
17178;DHT22;8704;52.006;4.374;2023-05-10T13:48:52;15.80;1.00
17178;DHT22;8704;52.006;4.374;2023-05-10T13:51:20;15.80;1.00
17178;DHT22;8704;52.006;4.374;2023-05-10T13:53:50;15.90;1.00
17178;DHT22;8704;52.006;4.374;2023-05-10T13:56:18;15.80;1.00
17178;DHT22;8704;52.006;4.374;2023-05-10T13:58:46;15.80;1.00
17178;DHT22;8704;52.006;4.374;2023-05-10T14:01:14;15.80;1.00
17178;DHT22;8704;52.006;4.374;2023-05-10T14:03:42;15.90;1.00
17178;DHT22;8704;52.006;4.374;2023-05-10T14:06:10;16.20;1.00
17178;DHT22;8704;52.006;4.374;2023-05-10T14:08:38;16.10;1.00
17178;DHT22;8704;52.006;4.374;2023-05-10T14:11:08;15.90;1.00
17178;DHT22;8704;52.006;4.374;2023-05-10T14:13:35;16.00;1.00
17178;DHT22;8704;52.006;4.374;2023-05-10T14:16:04;15.80;1.00
17178;DHT22;8704;52.006;4.374;2023-05-10T14:18:32;15.80;1.00
17178;DHT22;8704;52.006;4.374;2023-05-10T14:21:01;15.80;1.00
17178;DHT22;8704;52.006;4.374;2023-05-10T14:23:29;15.90;1.00
17178;DHT22;8704;52.006;4.374;2023-05-10T14:25:57;15.90;1.00
17178;DHT22;8704;52.006;4.374;2023-05-10T14:28:27;15.90;1.00
17178;DHT22;8704;52.006;4.374;2023-05-10T14:30:55;16.00;1.00
17178;DHT22;8704;52.006;4.374;2023-05-10T14:33:22;16.30;1.00
17178;DHT22;8704;52.006;4.374;2023-05-10T14:35:50;16.60;1.00
17178;DHT22;8704;52.006;4.374;2023-05-10T14:38:18;16.70;1.00
17178;DHT22;8704;52.006;4.374;2023-05-10T14:40:46;16.90;1.00
17178;DHT22;8704;52.006;4.374;2023-05-10T14:43:14;16.90;1.00
17178;DHT22;8704;52.006;4.374;2023-05-10T14:45:43;16.80;1.00
17178;DHT22;8704;52.006;4.374;2023-05-10T14:48:12;16.90;1.00
17178;DHT22;8704;52.006;4.374;2023-05-10T14:50:42;16.90;1.00
17178;DHT22;8704;52.006;4.374;2023-05-10T14:53:10;17.10;1.00
17178;DHT22;8704;52.006;4.374;2023-05-10T14:55:38;17.00;1.00
17178;DHT22;8704;52.006;4.374;2023-05-10T14:58:06;16.90;1.00
17178;DHT22;8704;52.006;4.374;2023-05-10T15:00:34;17.20;1.00
17178;DHT22;8704;52.006;4.374;2023-05-10T15:03:04;17.10;1.00
17178;DHT22;8704;52.006;4.374;2023-05-10T15:05:32;16.90;1.00
17178;DHT22;8704;52.006;4.374;2023-05-10T15:08:01;16.80;1.00
17178;DHT22;8704;52.006;4.374;2023-05-10T15:10:29;16.90;1.00
17178;DHT22;8704;52.006;4.374;2023-05-10T15:13:00;16.70;1.00
17178;DHT22;8704;52.006;4.374;2023-05-10T15:15:27;16.70;1.00
17178;DHT22;8704;52.006;4.374;2023-05-10T15:17:55;16.80;1.00
17178;DHT22;8704;52.006;4.374;2023-05-10T15:20:25;16.80;1.00
17178;DHT22;8704;52.006;4.374;2023-05-10T15:22:53;16.70;1.00
17178;DHT22;8704;52.006;4.374;2023-05-10T15:25:21;16.70;1.00
17178;DHT22;8704;52.006;4.374;2023-05-10T15:27:50;16.60;1.00
17178;DHT22;8704;52.006;4.374;2023-05-10T15:30:18;16.60;1.00
17178;DHT22;8704;52.006;4.374;2023-05-10T15:32:46;16.70;1.00
17178;DHT22;8704;52.006;4.374;2023-05-10T15:35:14;16.80;1.00
17178;DHT22;8704;52.006;4.374;2023-05-10T15:37:44;17.00;1.00
17178;DHT22;8704;52.006;4.374;2023-05-10T15:40:12;17.10;1.00
17178;DHT22;8704;52.006;4.374;2023-05-10T15:42:40;17.20;1.00
17178;DHT22;8704;52.006;4.374;2023-05-10T15:45:09;17.20;1.00
17178;DHT22;8704;52.006;4.374;2023-05-10T15:47:37;17.20;1.00
17178;DHT22;8704;52.006;4.374;2023-05-10T15:50:07;17.10;1.00
17178;DHT22;8704;52.006;4.374;2023-05-10T15:52:35;17.00;1.00
17178;DHT22;8704;52.006;4.374;2023-05-10T15:55:06;17.10;1.00
17178;DHT22;8704;52.006;4.374;2023-05-10T15:57:39;17.20;1.00
17178;DHT22;8704;52.006;4.374;2023-05-10T16:00:08;17.00;1.00
17178;DHT22;8704;52.006;4.374;2023-05-10T16:02:37;17.00;1.00
17178;DHT22;8704;52.006;4.374;2023-05-10T16:05:06;17.10;1.00
17178;DHT22;8704;52.006;4.374;2023-05-10T16:07:34;17.30;1.00
17178;DHT22;8704;52.006;4.374;2023-05-10T16:10:02;17.30;1.00
17178;DHT22;8704;52.006;4.374;2023-05-10T16:12:33;17.10;1.00
17178;DHT22;8704;52.006;4.374;2023-05-10T16:15:01;17.60;1.00